Aeroporto :
LOGIN :

Iscrizione | Disclaimer

   EN    FR    IT 

 










Sommario :    VFR   VFR Marginale   IFR   IFR Intensivo   IFR Molto Intensivo
Visibilità : 
Base nubi : 
>= 8 km
>= 3000ft
5 / 8 km
1000 / 3000 ft
1500m / 5 km
500 / 1000 ft
800 / 1500m
200 / 500 ft
< 800m
< 200 ft
Simboli :   Temporali  Nebbia  Neve Forte  Precipitazioni Forti  Vento > 20 kt
SIGMETs :   Varie  Temporali  Ghiacco  Turbolenza  Onda orograficha  Ceneri Vulcaniche







- Altitudine del aeroporto : 44 ft
- Codice IATA : SOU
- Carte del aeroporto


EGHI - Southampton

ULTIMO METAR :
  • 250920Z 36015KT 330V040 9999 FEW020 08/01 Q1033

METARs OBSOLETI :
  • 250850Z 36014KT 330V030 9999 FEW020 08/01 Q1032
  • 250820Z 36012KT 320V020 CAVOK 07/01 Q1032
  • 250750Z 36009KT 320V040 CAVOK 07/01 Q1032
  • 250720Z 34007G17KT 290V010 CAVOK 06/01 Q1031
  • 250650Z 33007KT 290V360 CAVOK 05/01 Q1031

TAF TAF EGHI
Valido dal 25 a 09 ore il 25 a 18 ore UTC


250757Z 2509/2518 35009KT 9999 FEW040
ATIS : +44 23 8062 7103
Nessun NOTAM noto per questo aeroporto.
1 SIGMET conosciuto per la FIR London (EGTT) :
 
Turbolenza severa
EGTT SIGMET 02 VALID 250600/251000 EGRR
EGTT LONDON FIR SEV TURB FCST NE OF LINE N5500 E00153 - N5309 E00324 SFC/FL060 STNR WKN=



MetMap, La meteo Aeronautica in un colpo d'occhio ! - Copyright ORBIFLY Dicembre 2007 - Disclaimer

ORBIFLY MET'MAP TEAM :

Programmazione e sviluppo : Alexandra Zaïnal
Concezione e sviluppo : Baudouin d'Aumeries
Co-Programmazione e sviluppo : Marc-Olivier Méhu
Supporto tecnico e logistico : Manuel Goepfert
Aiuto per la traduzione : Arnaldo La Scala

Contatto : metmap@orbifly.com




FONTI E CREDITI :

   NOAA